CheckWX is a tool to help pilots better visualize weather data.  It is not intended as a substitute for an official pre-flight weather briefing.

15:38:57 UTC

FALA TAF
Lanseria Airport
Johannesburg, South Africa
TAF FALA 041600Z 0418/0518 VRB03KT CAVOK TX22/0512Z TN03/0504Z BECMG 0500/0502 21006KT

Jul-4@
18:00 UTC

Jul-4 @ 18:00 UTC

Jul-5@
00:00 UTC

Jul-5 @ 00:00 UTC

TAF FALA 041600Z 0418/0518 VRB03KT CAVOK TX22/0512Z TN03/0504Z

Expired

Wind
  • Variable at 3 KTS
Cloud Levels
  • No significant clouds

Jul-5@
00:00 UTC

Jul-5 @ 00:00 UTC

Jul-5@
18:00 UTC

Jul-5 @ 18:00 UTC

BECMG 0500/0502 21006KT

Becoming

Becoming Conditions expected by Sun, Jul 5, 2020 @ 02:00 UTC

Wind
  • 210° at 6 KTS
Cloud Levels
  • No significant clouds